sensor_id;sensor_type;location;lat;lon;timestamp;pressure;altitude;pressure_sealevel;temperature;humidity
10460;BME280;54412;51.206;6.888;2024-01-27T00:00:07;102715.34;;;6.11;77.85
10460;BME280;54412;51.206;6.888;2024-01-27T00:02:33;102717.94;;;6.01;78.48
10460;BME280;54412;51.206;6.888;2024-01-27T00:04:59;102720.56;;;6.05;78.38
10460;BME280;54412;51.206;6.888;2024-01-27T00:07:24;102726.66;;;6.03;78.14
10460;BME280;54412;51.206;6.888;2024-01-27T00:09:52;102712.69;;;5.95;78.90
10460;BME280;54412;51.206;6.888;2024-01-27T00:12:18;102711.81;;;5.94;78.74
10460;BME280;54412;51.206;6.888;2024-01-27T00:14:43;102715.31;;;5.98;78.88
10460;BME280;54412;51.206;6.888;2024-01-27T00:17:10;102723.16;;;5.84;79.26
10460;BME280;54412;51.206;6.888;2024-01-27T00:19:36;102719.66;;;5.87;78.83
10460;BME280;54412;51.206;6.888;2024-01-27T00:22:01;102726.69;;;6.00;78.48
10460;BME280;54412;51.206;6.888;2024-01-27T00:24:28;102726.72;;;6.16;78.50
10460;BME280;54412;51.206;6.888;2024-01-27T00:26:53;102728.41;;;6.01;78.59
10460;BME280;54412;51.206;6.888;2024-01-27T00:29:20;102739.78;;;5.97;78.51
10460;BME280;54412;51.206;6.888;2024-01-27T00:31:45;102736.19;;;5.80;79.38
10460;BME280;54412;51.206;6.888;2024-01-27T00:34:11;102748.50;;;6.02;78.91
10460;BME280;54412;51.206;6.888;2024-01-27T00:36:37;102731.84;;;5.80;79.78
10460;BME280;54412;51.206;6.888;2024-01-27T00:39:03;102737.03;;;5.74;79.82
10460;BME280;54412;51.206;6.888;2024-01-27T00:41:29;102739.78;;;5.98;78.64
10460;BME280;54412;51.206;6.888;2024-01-27T00:43:55;102738.81;;;5.77;78.60
10460;BME280;54412;51.206;6.888;2024-01-27T00:46:21;102741.50;;;5.98;77.99
10460;BME280;54412;51.206;6.888;2024-01-27T00:48:47;102744.13;;;5.84;78.34
10460;BME280;54412;51.206;6.888;2024-01-27T00:51:13;102754.50;;;5.68;79.27
10460;BME280;54412;51.206;6.888;2024-01-27T00:53:39;102746.66;;;5.80;78.35
10460;BME280;54412;51.206;6.888;2024-01-27T00:56:06;102755.31;;;5.56;78.84
10460;BME280;54412;51.206;6.888;2024-01-27T00:58:32;102756.19;;;5.58;79.02
10460;BME280;54412;51.206;6.888;2024-01-27T01:00:57;102758.81;;;5.54;78.94
10460;BME280;54412;51.206;6.888;2024-01-27T01:03:24;102759.72;;;5.71;78.60
10460;BME280;54412;51.206;6.888;2024-01-27T01:05:50;102761.47;;;5.70;78.69
10460;BME280;54412;51.206;6.888;2024-01-27T01:08:15;102757.97;;;5.62;79.21
10460;BME280;54412;51.206;6.888;2024-01-27T01:10:41;102759.72;;;5.68;78.38
10460;BME280;54412;51.206;6.888;2024-01-27T01:13:07;102762.31;;;5.57;79.03
10460;BME280;54412;51.206;6.888;2024-01-27T01:15:33;102756.16;;;5.51;78.82
10460;BME280;54412;51.206;6.888;2024-01-27T01:17:58;102756.19;;;5.58;79.31
10460;BME280;54412;51.206;6.888;2024-01-27T01:20:24;102755.28;;;5.49;79.87
10460;BME280;54412;51.206;6.888;2024-01-27T01:22:52;102752.69;;;5.49;79.58
10460;BME280;54412;51.206;6.888;2024-01-27T01:25:17;102746.53;;;5.42;79.87
10460;BME280;54412;51.206;6.888;2024-01-27T01:27:45;102752.63;;;5.44;79.66
10460;BME280;54412;51.206;6.888;2024-01-27T01:30:11;102747.50;;;5.62;79.03
10460;BME280;54412;51.206;6.888;2024-01-27T01:32:37;102748.19;;;5.28;79.96
10460;BME280;54412;51.206;6.888;2024-01-27T01:35:03;102752.63;;;5.46;78.94
10460;BME280;54412;51.206;6.888;2024-01-27T01:37:29;102751.78;;;5.47;79.80
10460;BME280;54412;51.206;6.888;2024-01-27T01:39:55;102747.44;;;5.53;79.38
10460;BME280;54412;51.206;6.888;2024-01-27T01:42:21;102749.13;;;5.38;79.50
10460;BME280;54412;51.206;6.888;2024-01-27T01:44:50;102756.09;;;5.34;78.92
10460;BME280;54412;51.206;6.888;2024-01-27T01:47:16;102754.31;;;5.33;79.64
10460;BME280;54412;51.206;6.888;2024-01-27T01:49:42;102764.84;;;5.38;79.41
10460;BME280;54412;51.206;6.888;2024-01-27T01:52:08;102768.25;;;5.26;79.97
10460;BME280;54412;51.206;6.888;2024-01-27T01:54:34;102762.19;;;5.36;79.16
10460;BME280;54412;51.206;6.888;2024-01-27T01:57:02;102767.41;;;5.34;78.91
10460;BME280;54412;51.206;6.888;2024-01-27T01:59:28;102762.16;;;5.31;79.54
10460;BME280;54412;51.206;6.888;2024-01-27T02:01:54;102765.63;;;5.23;79.68
10460;BME280;54412;51.206;6.888;2024-01-27T02:04:20;102769.09;;;5.22;79.66
10460;BME280;54412;51.206;6.888;2024-01-27T02:06:45;102766.44;;;5.14;80.46
10460;BME280;54412;51.206;6.888;2024-01-27T02:09:11;102762.06;;;5.16;80.51
10460;BME280;54412;51.206;6.888;2024-01-27T02:11:36;102756.84;;;5.15;80.17
10460;BME280;54412;51.206;6.888;2024-01-27T02:14:02;102762.91;;;5.06;80.30
10460;BME280;54412;51.206;6.888;2024-01-27T02:16:28;102763.78;;;5.07;81.08
10460;BME280;54412;51.206;6.888;2024-01-27T02:18:54;102769.03;;;5.11;80.91
10460;BME280;54412;51.206;6.888;2024-01-27T02:21:20;102774.25;;;5.10;80.09
10460;BME280;54412;51.206;6.888;2024-01-27T02:23:45;102773.22;;;4.88;80.96
10460;BME280;54412;51.206;6.888;2024-01-27T02:26:11;102769.03;;;5.13;81.08
10460;BME280;54412;51.206;6.888;2024-01-27T02:28:37;102762.78;;;4.88;80.35
10460;BME280;54412;51.206;6.888;2024-01-27T02:31:02;102769.03;;;5.10;80.23
10460;BME280;54412;51.206;6.888;2024-01-27T02:33:29;102767.22;;;5.03;80.61
10460;BME280;54412;51.206;6.888;2024-01-27T02:35:54;102769.72;;;4.85;81.36
10460;BME280;54412;51.206;6.888;2024-01-27T02:38:20;102758.44;;;4.93;80.90
10460;BME280;54412;51.206;6.888;2024-01-27T02:40:46;102764.63;;;5.03;80.09
10460;BME280;54412;51.206;6.888;2024-01-27T02:43:12;102766.41;;;5.05;79.31
10460;BME280;54412;51.206;6.888;2024-01-27T02:45:37;102775.00;;;4.91;80.00
10460;BME280;54412;51.206;6.888;2024-01-27T02:48:03;102770.75;;;5.05;79.75
10460;BME280;54412;51.206;6.888;2024-01-27T02:50:29;102772.63;;;5.33;78.95
10460;BME280;54412;51.206;6.888;2024-01-27T02:52:55;102774.19;;;4.99;79.76
10460;BME280;54412;51.206;6.888;2024-01-27T02:55:21;102775.97;;;5.09;79.10
10460;BME280;54412;51.206;6.888;2024-01-27T02:57:46;102767.09;;;4.85;79.73
10460;BME280;54412;51.206;6.888;2024-01-27T03:00:12;102766.06;;;4.65;80.96
10460;BME280;54412;51.206;6.888;2024-01-27T03:02:38;102755.53;;;4.53;81.39
10460;BME280;54412;51.206;6.888;2024-01-27T03:05:04;102766.94;;;4.62;81.67
10460;BME280;54412;51.206;6.888;2024-01-27T03:07:30;102764.56;;;4.94;80.14
10460;BME280;54412;51.206;6.888;2024-01-27T03:09:56;102767.88;;;4.73;80.29
10460;BME280;54412;51.206;6.888;2024-01-27T03:12:21;102764.38;;;4.70;80.36
10460;BME280;54412;51.206;6.888;2024-01-27T03:14:48;102773.22;;;4.85;79.98
10460;BME280;54412;51.206;6.888;2024-01-27T03:17:15;102770.66;;;4.93;79.46
10460;BME280;54412;51.206;6.888;2024-01-27T03:19:41;102773.28;;;4.93;79.12
10460;BME280;54412;51.206;6.888;2024-01-27T03:22:07;102773.88;;;4.59;80.75
10460;BME280;54412;51.206;6.888;2024-01-27T03:24:32;102778.34;;;4.73;80.37
10460;BME280;54412;51.206;6.888;2024-01-27T03:26:58;102776.44;;;4.54;80.52
10460;BME280;54412;51.206;6.888;2024-01-27T03:29:24;102780.09;;;4.74;80.38
10460;BME280;54412;51.206;6.888;2024-01-27T03:31:49;102777.63;;;4.95;79.80
10460;BME280;54412;51.206;6.888;2024-01-27T03:34:15;102786.16;;;4.67;79.88
10460;BME280;54412;51.206;6.888;2024-01-27T03:36:43;102796.75;;;4.87;79.38
10460;BME280;54412;51.206;6.888;2024-01-27T03:39:08;102781.84;;;4.74;79.47
10460;BME280;54412;51.206;6.888;2024-01-27T03:41:34;102785.28;;;4.68;80.42
10460;BME280;54412;51.206;6.888;2024-01-27T03:44:00;102791.44;;;4.76;80.64
10460;BME280;54412;51.206;6.888;2024-01-27T03:46:25;102793.84;;;4.51;80.13
10460;BME280;54412;51.206;6.888;2024-01-27T03:48:51;102798.28;;;4.61;79.54
10460;BME280;54412;51.206;6.888;2024-01-27T03:51:17;102791.41;;;4.72;79.85
10460;BME280;54412;51.206;6.888;2024-01-27T03:53:42;102792.19;;;4.62;80.44
10460;BME280;54412;51.206;6.888;2024-01-27T03:56:12;102789.50;;;4.54;80.18
10460;BME280;54412;51.206;6.888;2024-01-27T03:58:38;102789.59;;;4.62;79.81
10460;BME280;54412;51.206;6.888;2024-01-27T04:01:04;102793.84;;;4.52;80.77
10460;BME280;54412;51.206;6.888;2024-01-27T04:03:30;102791.84;;;4.27;80.54
10460;BME280;54412;51.206;6.888;2024-01-27T04:05:55;102797.50;;;4.72;80.13
10460;BME280;54412;51.206;6.888;2024-01-27T04:08:21;102794.81;;;4.62;79.79
10460;BME280;54412;51.206;6.888;2024-01-27T04:10:46;102802.63;;;4.59;79.59
10460;BME280;54412;51.206;6.888;2024-01-27T04:13:12;102805.94;;;4.43;79.56
10460;BME280;54412;51.206;6.888;2024-01-27T04:15:38;102814.91;;;4.66;79.77
10460;BME280;54412;51.206;6.888;2024-01-27T04:18:07;102815.72;;;4.60;80.78
10460;BME280;54412;51.206;6.888;2024-01-27T04:20:34;102809.69;;;4.69;81.72
10460;BME280;54412;51.206;6.888;2024-01-27T04:23:00;102813.09;;;4.62;81.94
10460;BME280;54412;51.206;6.888;2024-01-27T04:25:26;102813.13;;;4.63;81.23
10460;BME280;54412;51.206;6.888;2024-01-27T04:27:52;102806.84;;;4.45;82.29
10460;BME280;54412;51.206;6.888;2024-01-27T04:30:18;102804.44;;;4.69;80.91
10460;BME280;54412;51.206;6.888;2024-01-27T04:32:44;102820.22;;;4.78;80.61
10460;BME280;54412;51.206;6.888;2024-01-27T04:35:11;102822.72;;;4.66;81.12
10460;BME280;54412;51.206;6.888;2024-01-27T04:37:38;102820.88;;;4.57;81.03
10460;BME280;54412;51.206;6.888;2024-01-27T04:40:05;102811.25;;;4.52;81.85
10460;BME280;54412;51.206;6.888;2024-01-27T04:42:34;102816.69;;;4.73;80.79
10460;BME280;54412;51.206;6.888;2024-01-27T04:45:01;102818.31;;;4.59;81.11
10460;BME280;54412;51.206;6.888;2024-01-27T04:47:27;102808.63;;;4.49;81.71
10460;BME280;54412;51.206;6.888;2024-01-27T04:49:53;102805.19;;;4.51;82.09
10460;BME280;54412;51.206;6.888;2024-01-27T04:52:19;102813.94;;;4.58;81.95
10460;BME280;54412;51.206;6.888;2024-01-27T04:54:44;102812.31;;;4.73;81.57
10460;BME280;54412;51.206;6.888;2024-01-27T04:57:10;102804.28;;;4.48;81.64
10460;BME280;54412;51.206;6.888;2024-01-27T04:59:36;102814.75;;;4.51;82.37
10460;BME280;54412;51.206;6.888;2024-01-27T05:02:01;102810.44;;;4.56;81.97
10460;BME280;54412;51.206;6.888;2024-01-27T05:04:27;102806.59;;;5.24;83.46
10460;BME280;54412;51.206;6.888;2024-01-27T05:06:53;102815.25;;;5.12;80.65
10460;BME280;54412;51.206;6.888;2024-01-27T05:09:18;102805.56;;;4.96;80.98
10460;BME280;54412;51.206;6.888;2024-01-27T05:11:44;102798.00;;;5.43;81.56
10460;BME280;54412;51.206;6.888;2024-01-27T05:14:11;102800.41;;;5.10;79.88
10460;BME280;54412;51.206;6.888;2024-01-27T05:16:37;102814.91;;;4.66;81.65
10460;BME280;54412;51.206;6.888;2024-01-27T05:19:03;102802.00;;;4.91;80.27
10460;BME280;54412;51.206;6.888;2024-01-27T05:21:28;102803.63;;;4.71;81.40
10460;BME280;54412;51.206;6.888;2024-01-27T05:23:54;102817.53;;;4.72;81.26
10460;BME280;54412;51.206;6.888;2024-01-27T05:26:20;102817.41;;;4.57;81.71
10460;BME280;54412;51.206;6.888;2024-01-27T05:28:46;102807.06;;;4.66;80.90
10460;BME280;54412;51.206;6.888;2024-01-27T05:31:12;102812.38;;;4.78;82.38
10460;BME280;54412;51.206;6.888;2024-01-27T05:33:38;102805.38;;;4.77;81.12
10460;BME280;54412;51.206;6.888;2024-01-27T05:36:07;102806.31;;;4.85;80.32
10460;BME280;54412;51.206;6.888;2024-01-27T05:38:33;102818.56;;;4.87;81.00
10460;BME280;54412;51.206;6.888;2024-01-27T05:41:02;102822.72;;;4.66;81.38
10460;BME280;54412;51.206;6.888;2024-01-27T05:43:28;102805.00;;;4.35;81.54
10460;BME280;54412;51.206;6.888;2024-01-27T05:45:54;102813.84;;;4.49;81.35
10460;BME280;54412;51.206;6.888;2024-01-27T05:48:20;102813.69;;;4.34;82.09
10460;BME280;54412;51.206;6.888;2024-01-27T05:50:59;102824.28;;;4.46;82.65
10460;BME280;54412;51.206;6.888;2024-01-27T05:53:26;102812.81;;;4.32;81.79
10460;BME280;54412;51.206;6.888;2024-01-27T05:55:53;102819.97;;;4.54;81.96
10460;BME280;54412;51.206;6.888;2024-01-27T05:58:19;102815.38;;;4.30;81.37
10460;BME280;54412;51.206;6.888;2024-01-27T06:00:48;102811.81;;;4.19;82.21
10460;BME280;54412;51.206;6.888;2024-01-27T06:03:14;102812.66;;;4.16;82.38
10460;BME280;54412;51.206;6.888;2024-01-27T06:05:43;102813.66;;;4.31;82.27
10460;BME280;54412;51.206;6.888;2024-01-27T06:08:09;102817.97;;;4.24;82.27
10460;BME280;54412;51.206;6.888;2024-01-27T06:10:35;102814.34;;;4.10;82.63
10460;BME280;54412;51.206;6.888;2024-01-27T06:13:04;102811.66;;;4.07;83.36
10460;BME280;54412;51.206;6.888;2024-01-27T06:15:30;102819.28;;;3.90;84.33
10460;BME280;54412;51.206;6.888;2024-01-27T06:17:56;102817.75;;;4.04;84.08
10460;BME280;54412;51.206;6.888;2024-01-27T06:20:23;102812.75;;;4.27;83.20
10460;BME280;54412;51.206;6.888;2024-01-27T06:22:48;102814.53;;;4.30;83.04
10460;BME280;54412;51.206;6.888;2024-01-27T06:25:14;102822.31;;;4.23;82.64
10460;BME280;54412;51.206;6.888;2024-01-27T06:27:40;102820.56;;;4.24;82.38
10460;BME280;54412;51.206;6.888;2024-01-27T06:30:09;102821.31;;;4.14;82.81
10460;BME280;54412;51.206;6.888;2024-01-27T06:32:36;102811.94;;;4.30;82.69
10460;BME280;54412;51.206;6.888;2024-01-27T06:35:03;102817.13;;;4.28;82.46
10460;BME280;54412;51.206;6.888;2024-01-27T06:37:29;102820.69;;;4.36;82.96
10460;BME280;54412;51.206;6.888;2024-01-27T06:39:55;102829.03;;;4.05;83.39
10460;BME280;54412;51.206;6.888;2024-01-27T06:42:20;102825.63;;;4.10;83.83
10460;BME280;54412;51.206;6.888;2024-01-27T06:44:46;102832.75;;;4.22;83.31
10460;BME280;54412;51.206;6.888;2024-01-27T06:47:12;102836.03;;;4.06;83.19
10460;BME280;54412;51.206;6.888;2024-01-27T06:49:37;102836.03;;;4.06;83.87
10460;BME280;54412;51.206;6.888;2024-01-27T06:52:03;102832.47;;;3.99;84.05
10460;BME280;54412;51.206;6.888;2024-01-27T06:54:29;102846.47;;;4.04;83.50
10460;BME280;54412;51.206;6.888;2024-01-27T06:56:55;102841.97;;;3.93;83.96
10460;BME280;54412;51.206;6.888;2024-01-27T06:59:20;102851.28;;;3.73;85.52
10460;BME280;54412;51.206;6.888;2024-01-27T07:01:50;102848.69;;;3.74;84.97
10460;BME280;54412;51.206;6.888;2024-01-27T07:04:15;102843.69;;;3.91;84.61
10460;BME280;54412;51.206;6.888;2024-01-27T07:06:41;102848.31;;;4.13;84.20
10460;BME280;54412;51.206;6.888;2024-01-27T07:09:07;102854.19;;;3.95;84.92
10460;BME280;54412;51.206;6.888;2024-01-27T07:11:33;102843.88;;;4.06;84.45
10460;BME280;54412;51.206;6.888;2024-01-27T07:13:59;102851.63;;;3.98;84.14
10460;BME280;54412;51.206;6.888;2024-01-27T07:16:24;102856.13;;;4.10;83.92
10460;BME280;54412;51.206;6.888;2024-01-27T07:18:50;102857.06;;;4.19;83.44
10460;BME280;54412;51.206;6.888;2024-01-27T07:21:16;102857.94;;;4.18;83.96
10460;BME280;54412;51.206;6.888;2024-01-27T07:23:43;102859.56;;;4.07;84.04
10460;BME280;54412;51.206;6.888;2024-01-27T07:26:10;102854.34;;;4.10;84.05
10460;BME280;54412;51.206;6.888;2024-01-27T07:28:37;102865.47;;;3.94;84.42
10460;BME280;54412;51.206;6.888;2024-01-27T07:31:04;102858.63;;;4.01;84.35
10460;BME280;54412;51.206;6.888;2024-01-27T07:33:31;102860.59;;;4.24;83.90
10460;BME280;54412;51.206;6.888;2024-01-27T07:35:56;102854.44;;;4.18;83.17
10460;BME280;54412;51.206;6.888;2024-01-27T07:38:22;102863.78;;;3.98;84.45
10460;BME280;54412;51.206;6.888;2024-01-27T07:40:48;102872.63;;;4.09;84.17
10460;BME280;54412;51.206;6.888;2024-01-27T07:43:13;102882.97;;;4.01;84.43
10460;BME280;54412;51.206;6.888;2024-01-27T07:45:39;102881.34;;;4.08;84.87
10460;BME280;54412;51.206;6.888;2024-01-27T07:48:05;102872.00;;;4.28;83.82
10460;BME280;54412;51.206;6.888;2024-01-27T07:50:31;102887.59;;;4.23;83.70
10460;BME280;54412;51.206;6.888;2024-01-27T07:52:57;102882.34;;;4.20;84.12
10460;BME280;54412;51.206;6.888;2024-01-27T07:55:23;102888.69;;;4.42;83.73
10460;BME280;54412;51.206;6.888;2024-01-27T07:57:49;102880.69;;;4.28;83.25
10460;BME280;54412;51.206;6.888;2024-01-27T08:00:15;102886.88;;;4.35;83.50
10460;BME280;54412;51.206;6.888;2024-01-27T08:02:41;102899.94;;;4.35;84.22
10460;BME280;54412;51.206;6.888;2024-01-27T08:05:07;102908.50;;;4.23;84.38
10460;BME280;54412;51.206;6.888;2024-01-27T08:07:34;102900.75;;;4.28;84.02
10460;BME280;54412;51.206;6.888;2024-01-27T08:09:59;102913.06;;;4.43;83.98
10460;BME280;54412;51.206;6.888;2024-01-27T08:12:25;102907.78;;;4.35;84.07
10460;BME280;54412;51.206;6.888;2024-01-27T08:14:52;102909.41;;;4.25;84.73
10460;BME280;54412;51.206;6.888;2024-01-27T08:17:19;102908.53;;;4.26;85.04
10460;BME280;54412;51.206;6.888;2024-01-27T08:19:44;102906.88;;;4.32;84.69
10460;BME280;54412;51.206;6.888;2024-01-27T08:22:10;102907.03;;;4.48;84.38
10460;BME280;54412;51.206;6.888;2024-01-27T08:24:36;102901.19;;;4.70;82.47
10460;BME280;54412;51.206;6.888;2024-01-27T08:27:02;102917.88;;;4.83;82.34
10460;BME280;54412;51.206;6.888;2024-01-27T08:29:27;102916.03;;;4.71;82.68
10460;BME280;54412;51.206;6.888;2024-01-27T08:31:53;102910.03;;;4.86;82.31
10460;BME280;54412;51.206;6.888;2024-01-27T08:34:19;102911.84;;;4.90;82.53
10460;BME280;54412;51.206;6.888;2024-01-27T08:36:45;102900.63;;;5.04;81.24
10460;BME280;54412;51.206;6.888;2024-01-27T08:39:10;102915.50;;;5.07;81.18
10460;BME280;54412;51.206;6.888;2024-01-27T08:41:37;102910.38;;;5.23;80.72
10460;BME280;54412;51.206;6.888;2024-01-27T08:44:03;102914.09;;;5.54;79.69
10460;BME280;54412;51.206;6.888;2024-01-27T08:46:29;102915.88;;;5.54;79.58
10460;BME280;54412;51.206;6.888;2024-01-27T08:48:55;102916.00;;;5.78;78.54
10460;BME280;54412;51.206;6.888;2024-01-27T08:51:20;102921.31;;;5.87;78.25
10460;BME280;54412;51.206;6.888;2024-01-27T08:53:46;102922.25;;;5.98;77.37
10460;BME280;54412;51.206;6.888;2024-01-27T08:56:17;102915.38;;;6.21;76.55
10460;BME280;54412;51.206;6.888;2024-01-27T08:58:44;102925.13;;;6.49;75.64
10460;BME280;54412;51.206;6.888;2024-01-27T09:01:11;102919.84;;;6.45;74.69
10460;BME280;54412;51.206;6.888;2024-01-27T09:03:40;102912.03;;;6.70;74.44
10460;BME280;54412;51.206;6.888;2024-01-27T09:06:06;102916.38;;;6.55;75.07
10460;BME280;54412;51.206;6.888;2024-01-27T09:08:33;102905.06;;;6.80;74.14
10460;BME280;54412;51.206;6.888;2024-01-27T09:11:01;102903.31;;;6.91;73.11
10460;BME280;54412;51.206;6.888;2024-01-27T09:13:27;102910.34;;;7.10;72.72
10460;BME280;54412;51.206;6.888;2024-01-27T09:15:53;102895.44;;;7.45;72.61
10460;BME280;54412;51.206;6.888;2024-01-27T09:18:18;102907.66;;;7.73;70.84
10460;BME280;54412;51.206;6.888;2024-01-27T09:20:44;102905.06;;;7.52;71.05
10460;BME280;54412;51.206;6.888;2024-01-27T09:23:10;102909.41;;;7.65;70.98
10460;BME280;54412;51.206;6.888;2024-01-27T09:25:37;102905.94;;;7.59;70.11
10460;BME280;54412;51.206;6.888;2024-01-27T09:28:03;102900.59;;;7.92;70.31
10460;BME280;54412;51.206;6.888;2024-01-27T09:30:28;102911.03;;;8.17;68.60
10460;BME280;54412;51.206;6.888;2024-01-27T09:32:54;102904.72;;;8.55;68.21
10460;BME280;54412;51.206;6.888;2024-01-27T09:35:20;102911.03;;;8.11;68.18
10460;BME280;54412;51.206;6.888;2024-01-27T09:37:46;102911.88;;;8.30;67.39
10460;BME280;54412;51.206;6.888;2024-01-27T09:40:12;102905.66;;;8.51;66.62
10460;BME280;54412;51.206;6.888;2024-01-27T09:42:38;102909.06;;;8.60;65.97
10460;BME280;54412;51.206;6.888;2024-01-27T09:45:05;102904.50;;;8.94;65.06
10460;BME280;54412;51.206;6.888;2024-01-27T09:47:31;102905.19;;;9.17;63.84
10460;BME280;54412;51.206;6.888;2024-01-27T09:49:57;102894.75;;;9.02;63.78
10460;BME280;54412;51.206;6.888;2024-01-27T09:52:24;102896.59;;;8.92;63.93
10460;BME280;54412;51.206;6.888;2024-01-27T09:54:50;102893.66;;;9.30;63.84
10460;BME280;54412;51.206;6.888;2024-01-27T09:57:16;102889.16;;;9.42;62.18
10460;BME280;54412;51.206;6.888;2024-01-27T09:59:45;102891.78;;;9.41;62.75
10460;BME280;54412;51.206;6.888;2024-01-27T10:02:13;102899.91;;;9.14;62.42
10460;BME280;54412;51.206;6.888;2024-01-27T10:04:41;102898.34;;;8.93;63.50
10460;BME280;54412;51.206;6.888;2024-01-27T10:07:08;102905.41;;;8.85;63.89
10460;BME280;54412;51.206;6.888;2024-01-27T10:09:34;102904.41;;;9.01;63.24
10460;BME280;54412;51.206;6.888;2024-01-27T10:12:01;102908.53;;;9.37;62.01
10460;BME280;54412;51.206;6.888;2024-01-27T10:14:41;102898.16;;;9.17;62.79
10460;BME280;54412;51.206;6.888;2024-01-27T10:17:11;102899.78;;;9.33;62.73
10460;BME280;54412;51.206;6.888;2024-01-27T10:19:37;102915.56;;;9.32;61.84
10460;BME280;54412;51.206;6.888;2024-01-27T10:22:04;102912.63;;;9.67;61.65
10460;BME280;54412;51.206;6.888;2024-01-27T10:24:33;102923.69;;;9.97;60.59
10460;BME280;54412;51.206;6.888;2024-01-27T10:27:02;102925.69;;;9.77;60.66
10460;BME280;54412;51.206;6.888;2024-01-27T10:29:29;102936.78;;;10.09;60.18
10460;BME280;54412;51.206;6.888;2024-01-27T10:31:55;102931.31;;;10.24;59.73
10460;BME280;54412;51.206;6.888;2024-01-27T10:34:21;102932.22;;;10.25;59.15
10460;BME280;54412;51.206;6.888;2024-01-27T10:36:46;102932.00;;;11.02;57.07
10460;BME280;54412;51.206;6.888;2024-01-27T10:39:21;102926.06;;;10.87;57.35
10460;BME280;54412;51.206;6.888;2024-01-27T10:41:48;102927.56;;;11.03;56.49
10460;BME280;54412;51.206;6.888;2024-01-27T10:44:16;102918.16;;;11.40;56.35
10460;BME280;54412;51.206;6.888;2024-01-27T10:46:49;102916.19;;;10.99;57.15
10460;BME280;54412;51.206;6.888;2024-01-27T10:49:17;102928.66;;;11.44;56.13
10460;BME280;54412;51.206;6.888;2024-01-27T10:51:54;102930.63;;;11.32;55.44
10460;BME280;54412;51.206;6.888;2024-01-27T10:54:26;102921.84;;;11.30;55.23
10460;BME280;54412;51.206;6.888;2024-01-27T10:56:57;102927.81;;;11.41;55.40
10460;BME280;54412;51.206;6.888;2024-01-27T10:59:27;102931.66;;;11.75;54.73
10460;BME280;54412;51.206;6.888;2024-01-27T11:01:54;102925.81;;;11.55;54.33
10460;BME280;54412;51.206;6.888;2024-01-27T11:04:22;102922.16;;;11.64;54.60
10460;BME280;54412;51.206;6.888;2024-01-27T11:06:48;102926.63;;;11.60;54.94
10460;BME280;54412;51.206;6.888;2024-01-27T11:09:14;102925.66;;;11.64;54.31
10460;BME280;54412;51.206;6.888;2024-01-27T11:11:42;102922.66;;;11.84;54.01
10460;BME280;54412;51.206;6.888;2024-01-27T11:14:09;102916.94;;;12.06;53.84
10460;BME280;54412;51.206;6.888;2024-01-27T11:16:36;102911.81;;;11.99;53.39
10460;BME280;54412;51.206;6.888;2024-01-27T11:19:04;102907.09;;;12.13;52.97
10460;BME280;54412;51.206;6.888;2024-01-27T11:21:30;102905.88;;;12.30;51.87
10460;BME280;54412;51.206;6.888;2024-01-27T11:23:56;102921.28;;;12.10;53.04
10460;BME280;54412;51.206;6.888;2024-01-27T11:26:23;102925.75;;;12.07;52.71
10460;BME280;54412;51.206;6.888;2024-01-27T11:28:49;102924.47;;;12.26;53.08
10460;BME280;54412;51.206;6.888;2024-01-27T11:31:19;102917.75;;;12.10;52.70
10460;BME280;54412;51.206;6.888;2024-01-27T11:33:50;102927.53;;;12.47;52.38
10460;BME280;54412;51.206;6.888;2024-01-27T11:36:24;102926.22;;;12.68;51.27
10460;BME280;54412;51.206;6.888;2024-01-27T11:38:51;102914.69;;;13.09;50.86
10460;BME280;54412;51.206;6.888;2024-01-27T11:41:28;102918.69;;;12.87;51.21
10460;BME280;54412;51.206;6.888;2024-01-27T11:43:58;102922.78;;;12.63;51.08
10460;BME280;54412;51.206;6.888;2024-01-27T11:46:27;102913.16;;;12.97;50.80
10460;BME280;54412;51.206;6.888;2024-01-27T11:48:53;102921.31;;;12.88;50.77
10460;BME280;54412;51.206;6.888;2024-01-27T11:51:19;102926.06;;;13.12;50.53
10460;BME280;54412;51.206;6.888;2024-01-27T11:53:45;102922.84;;;12.98;49.80
10460;BME280;54412;51.206;6.888;2024-01-27T11:56:12;102919.56;;;12.49;51.40
10460;BME280;54412;51.206;6.888;2024-01-27T11:58:37;102912.84;;;12.73;51.30
10460;BME280;54412;51.206;6.888;2024-01-27T12:01:03;102907.63;;;13.08;50.43
10460;BME280;54412;51.206;6.888;2024-01-27T12:03:30;102915.44;;;13.14;50.35
10460;BME280;54412;51.206;6.888;2024-01-27T12:05:56;102911.25;;;13.39;49.91
10460;BME280;54412;51.206;6.888;2024-01-27T12:08:21;102907.78;;;13.37;48.76
10460;BME280;54412;51.206;6.888;2024-01-27T12:10:47;102911.84;;;13.50;49.43
10460;BME280;54412;51.206;6.888;2024-01-27T12:13:13;102899.16;;;13.29;49.33
10460;BME280;54412;51.206;6.888;2024-01-27T12:15:39;102903.81;;;13.19;49.31
10460;BME280;54412;51.206;6.888;2024-01-27T12:18:05;102916.63;;;12.99;48.80
10460;BME280;54412;51.206;6.888;2024-01-27T12:20:31;102906.13;;;13.33;49.37
10460;BME280;54412;51.206;6.888;2024-01-27T12:23:06;102907.81;;;13.35;49.41
10460;BME280;54412;51.206;6.888;2024-01-27T12:25:32;102893.38;;;13.47;48.99
10460;BME280;54412;51.206;6.888;2024-01-27T12:28:06;102899.72;;;13.41;48.64
10460;BME280;54412;51.206;6.888;2024-01-27T12:30:33;102899.28;;;13.58;48.25
10460;BME280;54412;51.206;6.888;2024-01-27T12:33:01;102902.91;;;13.54;48.53
10460;BME280;54412;51.206;6.888;2024-01-27T12:35:28;102900.38;;;13.49;49.18
10460;BME280;54412;51.206;6.888;2024-01-27T12:37:54;102899.88;;;13.68;48.64
10460;BME280;54412;51.206;6.888;2024-01-27T12:40:21;102896.81;;;13.50;48.11
10460;BME280;54412;51.206;6.888;2024-01-27T12:42:48;102886.50;;;13.05;49.44
10460;BME280;54412;51.206;6.888;2024-01-27T12:45:14;102880.22;;;13.09;49.33
10460;BME280;54412;51.206;6.888;2024-01-27T12:47:40;102891.22;;;13.61;48.90
10460;BME280;54412;51.206;6.888;2024-01-27T12:50:06;102883.09;;;13.99;47.89
10460;BME280;54412;51.206;6.888;2024-01-27T12:52:32;102888.97;;;13.80;48.18